createdAt,value
2019-02-16T00:01:05.866Z,11.20
2019-02-16T00:03:36.218Z,11.05
2019-02-16T00:06:06.693Z,11.45
2019-02-16T00:08:37.087Z,11.05
2019-02-16T00:11:07.381Z,11.12
2019-02-16T00:13:37.741Z,11.18
2019-02-16T00:16:08.067Z,10.13
2019-02-16T00:18:50.867Z,10.68
2019-02-16T00:21:21.216Z,10.48
2019-02-16T00:23:51.562Z,11.40
2019-02-16T00:26:21.894Z,11.53
2019-02-16T00:28:52.277Z,11.60
2019-02-16T00:31:22.575Z,11.35
2019-02-16T00:33:52.963Z,10.60
2019-02-16T00:36:23.295Z,10.53
2019-02-16T00:38:54.287Z,9.53
2019-02-16T00:41:24.687Z,10.50
2019-02-16T00:43:55.117Z,9.90
2019-02-16T00:46:25.448Z,11.22
2019-02-16T00:48:55.814Z,10.28
2019-02-16T00:51:26.150Z,10.82
2019-02-16T00:53:56.495Z,10.85
2019-02-16T00:56:26.835Z,10.35
2019-02-16T00:58:57.196Z,10.00
2019-02-16T01:01:27.544Z,10.32
2019-02-16T01:03:57.892Z,10.20
2019-02-16T01:06:28.223Z,9.88
2019-02-16T01:08:59.524Z,9.93
2019-02-16T01:11:29.865Z,9.83
2019-02-16T01:14:00.276Z,10.08
2019-02-16T01:16:30.616Z,10.25
2019-02-16T01:19:00.973Z,10.40
2019-02-16T01:21:31.304Z,10.05
2019-02-16T01:24:01.650Z,9.83
2019-02-16T01:26:31.985Z,9.53
2019-02-16T01:29:02.325Z,9.95
2019-02-16T01:31:32.707Z,10.23
2019-02-16T01:34:03.114Z,9.98
2019-02-16T01:36:33.496Z,10.55
2019-02-16T01:39:04.751Z,10.68
2019-02-16T01:41:35.217Z,10.10
2019-02-16T01:44:06.056Z,10.80
2019-02-16T01:46:38.206Z,10.45
2019-02-16T01:49:08.716Z,10.45
2019-02-16T01:51:40.020Z,10.18
2019-02-16T01:54:10.425Z,9.85
2019-02-16T01:56:40.814Z,10.32
2019-02-16T01:59:11.218Z,9.98
2019-02-16T02:01:41.604Z,10.28
2019-02-16T02:04:12.010Z,10.05
2019-02-16T02:06:42.398Z,10.00
2019-02-16T02:09:12.862Z,10.08
2019-02-16T02:11:43.501Z,9.55
2019-02-16T02:14:13.875Z,9.88
2019-02-16T02:16:44.258Z,10.45
2019-02-16T02:19:15.622Z,9.80
2019-02-16T02:21:46.009Z,10.20
2019-02-16T02:24:16.409Z,9.28
2019-02-16T02:26:47.054Z,9.28
2019-02-16T02:29:18.446Z,9.30
2019-02-16T02:31:49.788Z,9.58
2019-02-16T02:34:20.259Z,8.93
2019-02-16T02:36:50.631Z,9.63
2019-02-16T02:39:21.253Z,10.03
2019-02-16T02:41:53.253Z,10.50
2019-02-16T02:44:23.652Z,10.30
2019-02-16T02:46:59.720Z,9.75
2019-02-16T02:49:30.128Z,10.72
2019-02-16T02:52:00.509Z,9.45
2019-02-16T02:54:30.910Z,10.20
2019-02-16T02:57:01.285Z,9.80
2019-02-16T02:59:31.700Z,10.03
2019-02-16T03:02:02.088Z,10.70
2019-02-16T03:04:32.483Z,9.73
2019-02-16T03:07:02.857Z,10.40
2019-02-16T03:09:33.257Z,9.43
2019-02-16T03:12:03.686Z,10.25
2019-02-16T03:14:34.110Z,10.08
2019-02-16T03:17:04.504Z,10.75
2019-02-16T03:19:34.899Z,9.80
2019-02-16T03:22:05.746Z,9.35
2019-02-16T03:24:36.136Z,9.98
2019-02-16T03:27:23.265Z,10.38
2019-02-16T03:30:33.010Z,9.60
2019-02-16T03:33:41.079Z,10.58
2019-02-16T03:36:33.882Z,9.63
2019-02-16T03:39:11.762Z,10.35
2019-02-16T03:41:42.156Z,9.88
2019-02-16T03:44:12.540Z,10.70
2019-02-16T03:46:43.857Z,9.00
2019-02-16T03:49:14.249Z,9.48
2019-02-16T03:51:44.630Z,9.13
2019-02-16T03:54:15.001Z,9.85
2019-02-16T03:56:45.383Z,11.20
2019-02-16T03:59:15.778Z,9.73
2019-02-16T04:01:46.162Z,9.65
2019-02-16T04:04:16.560Z,9.83
2019-02-16T04:06:46.935Z,9.25
2019-02-16T04:09:17.690Z,8.90
2019-02-16T04:11:48.074Z,10.03
2019-02-16T04:14:18.472Z,9.30
2019-02-16T04:16:48.821Z,10.15
2019-02-16T04:19:19.194Z,9.88
2019-02-16T04:21:49.581Z,9.55
2019-02-16T04:24:19.984Z,9.95
2019-02-16T04:26:50.328Z,9.78
2019-02-16T04:29:20.673Z,9.45
2019-02-16T04:31:51.012Z,10.38
2019-02-16T04:34:21.369Z,10.28
2019-02-16T04:36:51.710Z,9.55
2019-02-16T04:39:22.074Z,10.13
2019-02-16T04:41:52.407Z,10.00
2019-02-16T04:44:22.774Z,10.65
2019-02-16T04:46:53.103Z,10.82
2019-02-16T04:49:23.449Z,10.32
2019-02-16T04:51:54.861Z,11.05
2019-02-16T04:54:25.210Z,10.15
2019-02-16T04:56:55.555Z,9.33
2019-02-16T04:59:25.896Z,9.48
2019-02-16T05:01:56.230Z,10.18
2019-02-16T05:04:26.590Z,9.95
2019-02-16T05:06:56.923Z,9.68
2019-02-16T05:09:46.596Z,9.55
2019-02-16T05:12:16.940Z,10.58
2019-02-16T05:14:47.271Z,9.60
2019-02-16T05:17:30.271Z,9.60
2019-02-16T05:20:00.602Z,9.68
2019-02-16T05:22:30.955Z,10.30
2019-02-16T05:25:01.296Z,10.15
2019-02-16T05:27:31.645Z,10.03
2019-02-16T05:30:01.984Z,10.15
2019-02-16T05:32:32.330Z,10.60
2019-02-16T05:35:02.671Z,9.70
2019-02-16T05:37:33.024Z,10.93
2019-02-16T05:40:03.746Z,10.08
2019-02-16T05:42:34.097Z,9.80
2019-02-16T05:45:05.830Z,9.23
2019-02-16T05:47:36.181Z,9.03
2019-02-16T05:50:06.951Z,9.70
2019-02-16T05:52:37.304Z,10.70
2019-02-16T05:55:08.084Z,10.17
2019-02-16T05:57:38.439Z,10.78
2019-02-16T06:00:11.898Z,10.10
2019-02-16T06:02:42.475Z,9.90
2019-02-16T06:05:12.799Z,10.57
2019-02-16T06:07:43.175Z,10.50
2019-02-16T06:10:13.573Z,11.03
2019-02-16T06:12:43.933Z,10.37
2019-02-16T06:15:14.331Z,9.20
2019-02-16T06:17:44.688Z,9.48
2019-02-16T06:20:15.026Z,10.33
2019-02-16T06:22:45.369Z,10.33
2019-02-16T06:25:15.973Z,10.33
2019-02-16T06:27:46.312Z,10.53
2019-02-16T06:30:16.652Z,10.73
2019-02-16T06:32:47.011Z,11.67
2019-02-16T06:35:27.858Z,11.63
2019-02-16T06:38:10.495Z,11.88
2019-02-16T06:40:41.228Z,11.47
2019-02-16T06:43:11.656Z,12.30
2019-02-16T06:45:42.158Z,11.73
2019-02-16T06:48:12.513Z,10.93
2019-02-16T06:50:42.858Z,15.43
2019-02-16T06:53:13.763Z,15.73
2019-02-16T06:55:45.767Z,13.40
2019-02-16T06:58:16.115Z,12.18
2019-02-16T07:00:46.443Z,10.83
2019-02-16T07:03:16.788Z,12.10
2019-02-16T07:05:47.191Z,11.25
2019-02-16T07:08:17.536Z,11.73
2019-02-16T07:10:47.867Z,11.10
2019-02-16T07:13:19.311Z,10.87
2019-02-16T07:15:51.241Z,11.17
2019-02-16T07:18:23.240Z,11.27
2019-02-16T07:20:55.457Z,12.00
2019-02-16T07:23:25.815Z,11.53
2019-02-16T07:25:56.146Z,11.40
2019-02-16T07:28:26.527Z,12.80
2019-02-16T07:30:56.866Z,11.57
2019-02-16T07:33:27.287Z,11.00
2019-02-16T07:35:57.622Z,13.20
2019-02-16T07:38:27.961Z,11.60
2019-02-16T07:40:58.302Z,15.50
2019-02-16T07:43:45.614Z,13.72
2019-02-16T07:46:26.926Z,15.57
2019-02-16T07:49:07.792Z,16.75
2019-02-16T07:51:39.781Z,13.30
2019-02-16T07:54:28.134Z,12.73
2019-02-16T07:57:00.099Z,13.27
2019-02-16T08:02:26.390Z,12.73
2019-02-16T08:05:13.663Z,13.17
2019-02-16T08:07:45.639Z,12.45
2019-02-16T08:13:01.028Z,12.90
2019-02-16T08:15:44.955Z,12.45
2019-02-16T08:21:32.412Z,14.20
2019-02-16T08:24:04.391Z,13.95
2019-02-16T08:26:45.347Z,13.83
2019-02-16T08:29:17.315Z,14.25
2019-02-16T08:35:13.127Z,14.55
2019-02-16T08:37:48.000Z,13.65
2019-02-16T08:40:22.662Z,14.25
2019-02-16T08:43:10.822Z,15.32
2019-02-16T08:45:58.861Z,14.70
2019-02-16T08:48:39.595Z,13.90
2019-02-16T08:54:17.362Z,14.68
2019-02-16T08:57:01.252Z,16.42
2019-02-16T08:59:49.078Z,15.85
2019-02-16T09:02:33.214Z,15.32
2019-02-16T09:05:19.218Z,15.58
2019-02-16T09:07:51.201Z,16.23
2019-02-16T09:10:23.177Z,16.75
2019-02-16T09:12:58.182Z,16.65
2019-02-16T09:15:30.167Z,16.67
2019-02-16T09:18:19.961Z,16.27
2019-02-16T09:20:51.948Z,17.32
2019-02-16T09:23:23.957Z,17.05
2019-02-16T09:26:08.992Z,17.02
2019-02-16T09:28:40.979Z,17.70
2019-02-16T09:31:12.956Z,16.60
2019-02-16T09:33:50.817Z,16.65
2019-02-16T09:36:38.946Z,16.80
2019-02-16T09:39:11.008Z,16.05
2019-02-16T09:41:45.939Z,17.30
2019-02-16T09:44:26.517Z,17.10
2019-02-16T09:47:04.443Z,16.62
2019-02-16T09:49:38.829Z,16.12
2019-02-16T09:52:10.821Z,16.75
2019-02-16T09:54:51.861Z,16.90
2019-02-16T09:57:35.762Z,16.45
2019-02-16T10:00:13.836Z,16.20
2019-02-16T10:02:45.439Z,16.07
2019-02-16T10:05:29.452Z,16.93
2019-02-16T10:08:04.085Z,17.37
2019-02-16T10:10:41.880Z,16.02
2019-02-16T10:13:29.987Z,16.05
2019-02-16T10:16:18.358Z,16.27
2019-02-16T10:18:50.339Z,15.70
2019-02-16T10:21:22.344Z,16.32
2019-02-16T10:23:57.293Z,15.93
2019-02-16T10:26:31.982Z,16.67
2019-02-16T10:29:19.200Z,15.93
2019-02-16T10:31:54.066Z,16.05
2019-02-16T10:34:35.277Z,16.02
2019-02-16T10:37:09.970Z,16.23
2019-02-16T10:39:41.961Z,15.85
2019-02-16T10:42:25.980Z,16.50
2019-02-16T10:45:14.394Z,16.10
2019-02-16T10:47:55.474Z,16.50
2019-02-16T10:50:36.196Z,15.90
2019-02-16T10:53:08.193Z,16.05
2019-02-16T10:55:56.313Z,16.62
2019-02-16T10:58:34.260Z,15.18
2019-02-16T11:01:06.523Z,15.88
2019-02-16T11:03:44.609Z,15.95
2019-02-16T11:06:16.618Z,16.90
2019-02-16T11:08:48.601Z,16.00
2019-02-16T11:11:23.545Z,16.32
2019-02-16T11:14:04.686Z,16.35
2019-02-16T11:16:45.944Z,16.45
2019-02-16T11:19:20.828Z,16.80
2019-02-16T11:22:01.900Z,15.53
2019-02-16T11:24:36.858Z,15.32
2019-02-16T11:27:11.830Z,15.40
2019-02-16T11:29:52.356Z,15.98
2019-02-16T11:32:40.533Z,14.45
2019-02-16T11:35:15.440Z,15.15
2019-02-16T11:37:56.471Z,15.10
2019-02-16T11:40:31.355Z,15.78
2019-02-16T11:43:04.472Z,16.60
2019-02-16T11:45:39.086Z,16.25
2019-02-16T11:48:18.170Z,15.78
2019-02-16T11:50:50.149Z,15.32
2019-02-16T11:53:22.315Z,15.88
2019-02-16T11:55:57.628Z,16.70
2019-02-16T11:58:32.400Z,16.70
2019-02-16T12:01:05.932Z,16.97
2019-02-16T12:03:37.920Z,16.70
2019-02-16T12:06:09.916Z,16.50
2019-02-16T12:08:47.786Z,16.77
2019-02-16T12:11:22.911Z,17.60
2019-02-16T12:13:54.934Z,16.23
2019-02-16T12:16:32.601Z,18.32
2019-02-16T12:19:19.626Z,16.42
2019-02-16T12:21:51.622Z,17.73
2019-02-16T12:24:23.609Z,16.90
2019-02-16T12:27:07.802Z,18.67
2019-02-16T12:29:39.796Z,17.57
2019-02-16T12:32:14.502Z,17.30
2019-02-16T12:34:46.509Z,17.77
2019-02-16T12:37:24.350Z,17.37
2019-02-16T12:40:05.552Z,17.52
2019-02-16T12:42:40.479Z,18.27
2019-02-16T12:45:25.477Z,18.32
2019-02-16T12:47:57.467Z,18.07
2019-02-16T12:50:32.507Z,18.17
2019-02-16T12:53:20.705Z,17.23
2019-02-16T12:56:04.701Z,17.67
2019-02-16T12:58:36.692Z,17.90
2019-02-16T13:01:14.175Z,18.02
2019-02-16T13:03:52.092Z,18.82
2019-02-16T13:06:39.304Z,18.23
2019-02-16T13:09:15.184Z,17.85
2019-02-16T13:11:52.945Z,19.20
2019-02-16T13:14:30.715Z,18.80
2019-02-16T13:17:02.701Z,20.05
2019-02-16T13:19:37.505Z,19.67
2019-02-16T13:22:12.614Z,19.50
2019-02-16T13:24:53.836Z,17.07
2019-02-16T13:27:25.814Z,17.70
2019-02-16T13:30:03.718Z,17.50
2019-02-16T13:32:35.705Z,17.32
2019-02-16T13:35:14.408Z,19.23
2019-02-16T13:37:46.401Z,20.15
2019-02-16T13:40:22.214Z,17.90
2019-02-16T13:43:03.166Z,19.82
2019-02-16T13:45:35.151Z,19.23
2019-02-16T13:48:07.147Z,18.67
2019-02-16T13:50:44.858Z,20.70
2019-02-16T13:53:16.840Z,19.80
2019-02-16T13:55:48.885Z,19.60
2019-02-16T13:58:39.237Z,18.92
2019-02-16T14:01:12.202Z,18.92
2019-02-16T14:03:44.189Z,18.07
2019-02-16T14:06:18.912Z,19.20
2019-02-16T14:08:50.898Z,18.80
2019-02-16T14:11:37.997Z,18.67
2019-02-16T14:14:12.669Z,19.70
2019-02-16T14:16:50.386Z,18.98
2019-02-16T14:19:40.069Z,19.45
2019-02-16T14:22:10.427Z,18.10
2019-02-16T14:24:42.424Z,17.85
2019-02-16T14:27:12.808Z,18.07
2019-02-16T14:29:43.134Z,18.77
2019-02-16T14:32:13.476Z,21.65
2019-02-16T14:34:43.843Z,20.43
2019-02-16T14:37:18.498Z,19.67
2019-02-16T14:39:48.859Z,18.75
2019-02-16T14:42:19.192Z,19.02
2019-02-16T14:44:49.850Z,18.82
2019-02-16T14:47:20.202Z,18.55
2019-02-16T14:49:51.526Z,18.07
2019-02-16T14:52:21.878Z,18.32
2019-02-16T14:54:52.215Z,18.98
2019-02-16T14:57:22.564Z,20.52
2019-02-16T14:59:52.936Z,18.27
2019-02-16T15:02:23.300Z,18.55
2019-02-16T15:04:53.639Z,20.60
2019-02-16T15:07:25.016Z,20.08
2019-02-16T15:09:55.361Z,19.90
2019-02-16T15:12:25.726Z,18.17
2019-02-16T15:19:02.026Z,17.52
2019-02-16T15:21:33.470Z,19.12
2019-02-16T15:24:03.868Z,20.80
2019-02-16T15:26:34.225Z,18.52
2019-02-16T15:29:04.577Z,18.95
2019-02-16T15:31:34.940Z,18.98
2019-02-16T15:34:05.299Z,19.37
2019-02-16T15:36:35.653Z,19.62
2019-02-16T15:39:07.897Z,18.55
2019-02-16T15:41:38.311Z,19.87
2019-02-16T15:44:10.694Z,19.85
2019-02-16T15:46:40.755Z,18.73
2019-02-16T15:49:11.261Z,19.02
2019-02-16T15:51:41.636Z,18.60
2019-02-16T15:54:12.013Z,20.57
2019-02-16T15:56:43.311Z,18.98
2019-02-16T15:59:13.716Z,19.75
2019-02-16T16:01:44.169Z,19.07
2019-02-16T16:04:14.518Z,20.08
2019-02-16T16:06:44.886Z,19.37
2019-02-16T16:09:16.890Z,18.92
2019-02-16T16:11:48.896Z,18.67
2019-02-16T16:14:39.061Z,19.15
2019-02-16T16:17:19.909Z,17.85
2019-02-16T16:20:06.912Z,19.45
2019-02-16T16:22:38.899Z,16.82
2019-02-16T16:25:27.238Z,18.55
2019-02-16T16:28:17.555Z,18.42
2019-02-16T16:30:49.565Z,19.52
2019-02-16T16:33:37.989Z,18.87
2019-02-16T16:39:15.839Z,19.37
2019-02-16T16:41:47.828Z,20.92
2019-02-16T16:44:22.764Z,18.75
2019-02-16T16:47:06.910Z,18.98
2019-02-16T16:49:41.848Z,20.82
2019-02-16T16:52:32.656Z,19.57
2019-02-16T16:55:07.198Z,19.15
2019-02-16T16:57:40.277Z,19.98
2019-02-16T17:00:27.593Z,19.17
2019-02-16T17:03:18.217Z,17.65
2019-02-16T17:05:51.275Z,20.12
2019-02-16T17:08:25.898Z,19.95
2019-02-16T17:11:00.314Z,19.50
2019-02-16T17:13:32.319Z,20.57
2019-02-16T17:16:14.362Z,18.30
2019-02-16T17:18:58.395Z,19.23
2019-02-16T17:21:46.847Z,20.50
2019-02-16T17:24:31.055Z,19.48
2019-02-16T17:27:08.999Z,19.00
2019-02-16T17:29:43.700Z,20.45
2019-02-16T17:32:30.832Z,20.17
2019-02-16T17:35:19.072Z,19.55
2019-02-16T17:37:56.982Z,19.55
2019-02-16T17:40:47.256Z,21.50
2019-02-16T17:43:19.275Z,20.15
2019-02-16T17:46:09.297Z,19.70
2019-02-16T17:48:59.519Z,18.62
2019-02-16T17:51:34.422Z,20.23
2019-02-16T17:54:24.404Z,20.95
2019-02-16T17:56:59.059Z,21.52
2019-02-16T17:59:42.691Z,22.40
2019-02-16T18:02:14.704Z,25.12
2019-02-16T18:04:46.693Z,22.48
2019-02-16T18:07:30.700Z,23.35
2019-02-16T18:10:02.703Z,23.27
2019-02-16T18:12:34.694Z,22.62
2019-02-16T18:15:12.104Z,22.73
2019-02-16T18:17:53.267Z,23.40
2019-02-16T18:20:31.136Z,23.05
2019-02-16T18:23:08.831Z,23.75
2019-02-16T18:25:40.888Z,23.62
2019-02-16T18:28:19.632Z,22.65
2019-02-16T18:31:03.829Z,25.25
2019-02-16T18:33:44.784Z,21.52
2019-02-16T18:36:37.998Z,24.95
2019-02-16T18:39:28.310Z,25.05
2019-02-16T18:42:18.387Z,24.92
2019-02-16T18:45:04.681Z,23.02
2019-02-16T18:47:48.014Z,25.75
2019-02-16T18:50:20.057Z,23.20
2019-02-16T18:52:54.894Z,24.50
2019-02-16T18:55:39.131Z,24.30
2019-02-16T18:58:17.044Z,26.23
2019-02-16T19:01:07.171Z,26.40
2019-02-16T19:03:39.218Z,32.90
2019-02-16T19:06:11.188Z,35.52
2019-02-16T19:08:43.306Z,33.90
2019-02-16T19:11:24.991Z,30.82
2019-02-16T19:13:57.010Z,31.48
2019-02-16T19:16:31.655Z,27.22
2019-02-16T19:19:19.712Z,26.15
2019-02-16T19:21:57.367Z,27.52
2019-02-16T19:24:32.267Z,27.17
2019-02-16T19:27:16.431Z,28.30
2019-02-16T19:29:43.677Z,27.98
2019-02-16T19:32:15.682Z,27.07
2019-02-16T19:34:59.924Z,27.20
2019-02-16T19:37:31.923Z,27.58
2019-02-16T19:40:18.543Z,28.57
2019-02-16T19:42:59.373Z,25.27
2019-02-16T19:45:41.476Z,26.62
2019-02-16T19:48:13.486Z,27.13
2019-02-16T19:50:54.277Z,27.13
2019-02-16T19:53:35.393Z,26.87
2019-02-16T19:56:07.395Z,25.85
2019-02-16T19:58:42.366Z,24.55
2019-02-16T20:01:30.983Z,25.35
2019-02-16T20:04:19.243Z,24.43
2019-02-16T20:06:51.231Z,24.87
2019-02-16T20:09:29.003Z,24.98
2019-02-16T20:12:10.014Z,26.17
2019-02-16T20:14:51.052Z,26.90
2019-02-16T20:17:23.061Z,26.52
2019-02-16T20:20:03.785Z,26.17
2019-02-16T20:22:41.780Z,25.72
2019-02-16T20:25:28.868Z,26.30
2019-02-16T20:28:15.911Z,26.95
2019-02-16T20:33:45.945Z,25.95
2019-02-16T20:36:18.912Z,27.20
2019-02-16T20:38:50.924Z,27.13
2019-02-16T20:41:33.037Z,27.98
2019-02-16T20:44:07.980Z,26.65
2019-02-16T20:46:49.160Z,28.77
2019-02-16T20:49:21.144Z,28.02
2019-02-16T20:51:53.140Z,27.20
2019-02-16T20:54:34.368Z,28.05
2019-02-16T20:57:09.375Z,30.88
2019-02-16T20:59:57.652Z,27.45
2019-02-16T21:02:34.021Z,30.55
2019-02-16T21:05:09.579Z,29.60
2019-02-16T21:07:59.584Z,30.43
2019-02-16T21:10:36.274Z,30.45
2019-02-16T21:13:17.501Z,31.07
2019-02-16T21:15:49.494Z,32.25
2019-02-16T21:18:29.006Z,28.17
2019-02-16T21:21:13.046Z,30.43
2019-02-16T21:23:48.011Z,29.70
2019-02-16T21:26:19.933Z,30.40
2019-02-16T21:28:51.948Z,31.70
2019-02-16T21:31:23.940Z,30.75
2019-02-16T21:33:56.265Z,33.20
2019-02-16T21:36:34.219Z,33.08
2019-02-16T21:39:13.726Z,34.27
2019-02-16T21:41:56.279Z,30.77
2019-02-16T21:44:28.282Z,31.37
2019-02-16T21:47:02.944Z,31.20
2019-02-16T21:49:39.526Z,31.07
2019-02-16T21:52:28.132Z,32.30
2019-02-16T21:55:05.852Z,32.00
2019-02-16T21:57:40.517Z,30.80
2019-02-16T22:03:38.192Z,29.42
2019-02-16T22:09:27.953Z,30.02
2019-02-16T22:12:18.331Z,27.70
2019-02-16T22:15:02.840Z,29.30
2019-02-16T22:17:34.108Z,27.52
2019-02-16T22:20:07.470Z,30.12
2019-02-16T22:22:37.806Z,30.52
2019-02-16T22:25:08.385Z,30.15
2019-02-16T22:27:38.717Z,29.52
2019-02-16T22:30:11.097Z,29.55
2019-02-16T22:32:41.433Z,30.15
2019-02-16T22:35:11.769Z,32.23
2019-02-16T22:37:42.126Z,31.40
2019-02-16T22:40:12.540Z,32.08
2019-02-16T22:42:42.962Z,30.20
2019-02-16T22:45:13.369Z,30.40
2019-02-16T22:47:43.741Z,29.50
2019-02-16T22:50:14.079Z,29.70
2019-02-16T22:52:44.427Z,31.37
2019-02-16T22:55:14.752Z,31.60
2019-02-16T22:57:45.096Z,30.50
2019-02-16T23:00:36.843Z,30.95
2019-02-16T23:03:08.818Z,29.25
2019-02-16T23:05:39.235Z,30.50
2019-02-16T23:08:09.727Z,31.77
2019-02-16T23:10:41.128Z,29.75
2019-02-16T23:13:11.504Z,31.50
2019-02-16T23:15:41.814Z,31.80
2019-02-16T23:18:12.223Z,30.40
2019-02-16T23:20:42.552Z,32.45
2019-02-16T23:23:12.910Z,30.88
2019-02-16T23:25:51.696Z,30.95
2019-02-16T23:28:22.042Z,31.23
2019-02-16T23:30:52.371Z,30.97
2019-02-16T23:33:22.720Z,31.97
2019-02-16T23:35:53.058Z,32.03
2019-02-16T23:38:23.481Z,30.72
2019-02-16T23:40:53.815Z,31.85
2019-02-16T23:43:24.173Z,30.70
2019-02-16T23:45:54.506Z,31.17
2019-02-16T23:48:24.935Z,34.00
2019-02-16T23:50:55.341Z,32.75
2019-02-16T23:53:25.781Z,32.53
2019-02-16T23:55:56.145Z,32.83
2019-02-16T23:58:26.507Z,32.40
